sensor_id;sensor_type;location;lat;lon;timestamp;P1;durP1;ratioP1;P2;durP2;ratioP2
14235;SDS011;7202;50.718;7.072;2024-01-15T00:01:36;16.27;;;8.63;;
14235;SDS011;7202;50.718;7.072;2024-01-15T00:04:06;16.10;;;8.45;;
14235;SDS011;7202;50.718;7.072;2024-01-15T00:06:35;16.77;;;9.95;;
14235;SDS011;7202;50.718;7.072;2024-01-15T00:09:03;18.77;;;8.85;;
14235;SDS011;7202;50.718;7.072;2024-01-15T00:11:33;18.50;;;8.57;;
14235;SDS011;7202;50.718;7.072;2024-01-15T00:14:02;17.02;;;8.20;;
14235;SDS011;7202;50.718;7.072;2024-01-15T00:16:33;15.52;;;8.75;;
14235;SDS011;7202;50.718;7.072;2024-01-15T00:19:02;17.23;;;8.68;;
14235;SDS011;7202;50.718;7.072;2024-01-15T00:21:32;15.63;;;7.78;;
14235;SDS011;7202;50.718;7.072;2024-01-15T00:24:00;18.38;;;8.55;;
14235;SDS011;7202;50.718;7.072;2024-01-15T00:26:29;15.02;;;8.57;;
14235;SDS011;7202;50.718;7.072;2024-01-15T00:28:58;22.92;;;8.63;;
14235;SDS011;7202;50.718;7.072;2024-01-15T00:31:27;17.67;;;9.07;;
14235;SDS011;7202;50.718;7.072;2024-01-15T00:33:57;18.88;;;8.85;;
14235;SDS011;7202;50.718;7.072;2024-01-15T00:36:25;17.27;;;9.38;;
14235;SDS011;7202;50.718;7.072;2024-01-15T00:38:55;21.95;;;9.52;;
14235;SDS011;7202;50.718;7.072;2024-01-15T00:41:24;17.20;;;9.05;;
14235;SDS011;7202;50.718;7.072;2024-01-15T00:43:54;16.13;;;8.40;;
14235;SDS011;7202;50.718;7.072;2024-01-15T00:46:23;19.13;;;9.57;;
14235;SDS011;7202;50.718;7.072;2024-01-15T00:48:51;20.00;;;9.30;;
14235;SDS011;7202;50.718;7.072;2024-01-15T00:51:20;15.35;;;8.43;;
14235;SDS011;7202;50.718;7.072;2024-01-15T00:53:48;17.98;;;9.85;;
14235;SDS011;7202;50.718;7.072;2024-01-15T00:56:18;22.27;;;9.15;;
14235;SDS011;7202;50.718;7.072;2024-01-15T00:58:47;16.38;;;9.00;;
14235;SDS011;7202;50.718;7.072;2024-01-15T01:01:15;20.17;;;9.50;;
14235;SDS011;7202;50.718;7.072;2024-01-15T01:03:44;19.00;;;8.95;;
14235;SDS011;7202;50.718;7.072;2024-01-15T01:06:13;16.00;;;8.85;;
14235;SDS011;7202;50.718;7.072;2024-01-15T01:08:41;18.08;;;9.52;;
14235;SDS011;7202;50.718;7.072;2024-01-15T01:11:12;16.27;;;9.45;;
14235;SDS011;7202;50.718;7.072;2024-01-15T01:13:42;16.13;;;9.23;;
14235;SDS011;7202;50.718;7.072;2024-01-15T01:16:10;17.63;;;9.02;;
14235;SDS011;7202;50.718;7.072;2024-01-15T01:18:39;17.00;;;9.07;;
14235;SDS011;7202;50.718;7.072;2024-01-15T01:21:08;19.73;;;8.77;;
14235;SDS011;7202;50.718;7.072;2024-01-15T01:23:36;23.02;;;9.07;;
14235;SDS011;7202;50.718;7.072;2024-01-15T01:26:05;15.45;;;8.25;;
14235;SDS011;7202;50.718;7.072;2024-01-15T01:28:33;19.58;;;9.55;;
14235;SDS011;7202;50.718;7.072;2024-01-15T01:31:03;17.40;;;9.05;;
14235;SDS011;7202;50.718;7.072;2024-01-15T01:33:32;19.95;;;9.52;;
14235;SDS011;7202;50.718;7.072;2024-01-15T01:36:00;17.77;;;10.07;;
14235;SDS011;7202;50.718;7.072;2024-01-15T01:38:34;20.95;;;9.15;;
14235;SDS011;7202;50.718;7.072;2024-01-15T01:41:03;16.83;;;9.60;;
14235;SDS011;7202;50.718;7.072;2024-01-15T01:43:31;19.25;;;10.20;;
14235;SDS011;7202;50.718;7.072;2024-01-15T01:46:00;17.50;;;9.95;;
14235;SDS011;7202;50.718;7.072;2024-01-15T01:48:31;17.38;;;9.85;;
14235;SDS011;7202;50.718;7.072;2024-01-15T01:51:01;21.88;;;9.95;;
14235;SDS011;7202;50.718;7.072;2024-01-15T01:53:32;18.08;;;9.63;;
14235;SDS011;7202;50.718;7.072;2024-01-15T01:56:02;18.75;;;9.73;;
14235;SDS011;7202;50.718;7.072;2024-01-15T01:58:32;19.50;;;10.25;;
14235;SDS011;7202;50.718;7.072;2024-01-15T02:01:02;18.50;;;9.85;;
14235;SDS011;7202;50.718;7.072;2024-01-15T02:03:32;24.73;;;11.20;;
14235;SDS011;7202;50.718;7.072;2024-01-15T02:06:01;19.00;;;10.35;;
14235;SDS011;7202;50.718;7.072;2024-01-15T02:08:30;22.90;;;10.52;;
14235;SDS011;7202;50.718;7.072;2024-01-15T02:10:59;21.63;;;10.98;;
14235;SDS011;7202;50.718;7.072;2024-01-15T02:13:28;19.10;;;10.52;;
14235;SDS011;7202;50.718;7.072;2024-01-15T02:15:56;23.70;;;11.02;;
14235;SDS011;7202;50.718;7.072;2024-01-15T02:18:25;19.45;;;10.80;;
14235;SDS011;7202;50.718;7.072;2024-01-15T02:20:55;20.98;;;10.60;;
14235;SDS011;7202;50.718;7.072;2024-01-15T02:23:25;23.05;;;10.88;;
14235;SDS011;7202;50.718;7.072;2024-01-15T02:25:53;22.67;;;10.07;;
14235;SDS011;7202;50.718;7.072;2024-01-15T02:28:22;23.42;;;11.30;;
14235;SDS011;7202;50.718;7.072;2024-01-15T02:30:50;19.95;;;10.60;;
14235;SDS011;7202;50.718;7.072;2024-01-15T02:33:19;20.08;;;10.50;;
14235;SDS011;7202;50.718;7.072;2024-01-15T02:35:48;27.77;;;11.48;;
14235;SDS011;7202;50.718;7.072;2024-01-15T02:38:16;19.63;;;10.57;;
14235;SDS011;7202;50.718;7.072;2024-01-15T02:40:46;22.27;;;11.25;;
14235;SDS011;7202;50.718;7.072;2024-01-15T02:43:15;26.00;;;11.77;;
14235;SDS011;7202;50.718;7.072;2024-01-15T02:45:46;21.80;;;11.13;;
14235;SDS011;7202;50.718;7.072;2024-01-15T02:48:14;25.48;;;11.75;;
14235;SDS011;7202;50.718;7.072;2024-01-15T02:50:43;24.73;;;11.75;;
14235;SDS011;7202;50.718;7.072;2024-01-15T02:53:12;24.48;;;11.07;;
14235;SDS011;7202;50.718;7.072;2024-01-15T02:55:40;19.08;;;10.48;;
14235;SDS011;7202;50.718;7.072;2024-01-15T02:58:10;20.98;;;12.07;;
14235;SDS011;7202;50.718;7.072;2024-01-15T03:00:39;22.20;;;11.95;;
14235;SDS011;7202;50.718;7.072;2024-01-15T03:03:07;22.23;;;11.95;;
14235;SDS011;7202;50.718;7.072;2024-01-15T03:05:36;25.35;;;11.73;;
14235;SDS011;7202;50.718;7.072;2024-01-15T03:08:05;20.17;;;10.38;;
14235;SDS011;7202;50.718;7.072;2024-01-15T03:10:33;24.40;;;12.02;;
14235;SDS011;7202;50.718;7.072;2024-01-15T03:13:02;20.05;;;11.88;;
14235;SDS011;7202;50.718;7.072;2024-01-15T03:15:32;23.48;;;11.90;;
14235;SDS011;7202;50.718;7.072;2024-01-15T03:18:04;22.98;;;11.45;;
14235;SDS011;7202;50.718;7.072;2024-01-15T03:20:33;22.25;;;10.77;;
14235;SDS011;7202;50.718;7.072;2024-01-15T03:23:02;20.55;;;10.88;;
14235;SDS011;7202;50.718;7.072;2024-01-15T03:25:31;19.73;;;10.75;;
14235;SDS011;7202;50.718;7.072;2024-01-15T03:27:59;20.52;;;10.73;;
14235;SDS011;7202;50.718;7.072;2024-01-15T03:30:28;21.67;;;11.20;;
14235;SDS011;7202;50.718;7.072;2024-01-15T03:33:00;29.27;;;10.05;;
14235;SDS011;7202;50.718;7.072;2024-01-15T03:35:29;19.50;;;10.85;;
14235;SDS011;7202;50.718;7.072;2024-01-15T03:37:58;24.58;;;11.30;;
14235;SDS011;7202;50.718;7.072;2024-01-15T03:40:26;22.35;;;11.02;;
14235;SDS011;7202;50.718;7.072;2024-01-15T03:42:55;20.92;;;11.57;;
14235;SDS011;7202;50.718;7.072;2024-01-15T03:45:23;22.45;;;10.90;;
14235;SDS011;7202;50.718;7.072;2024-01-15T03:47:53;19.52;;;10.77;;
14235;SDS011;7202;50.718;7.072;2024-01-15T03:50:22;19.92;;;10.55;;
14235;SDS011;7202;50.718;7.072;2024-01-15T03:52:51;22.38;;;11.30;;
14235;SDS011;7202;50.718;7.072;2024-01-15T03:55:19;20.55;;;11.63;;
14235;SDS011;7202;50.718;7.072;2024-01-15T03:57:48;21.02;;;11.55;;
14235;SDS011;7202;50.718;7.072;2024-01-15T04:00:16;19.30;;;10.73;;
14235;SDS011;7202;50.718;7.072;2024-01-15T04:02:45;23.30;;;11.85;;
14235;SDS011;7202;50.718;7.072;2024-01-15T04:05:15;19.27;;;10.50;;
14235;SDS011;7202;50.718;7.072;2024-01-15T04:07:44;21.67;;;11.57;;
14235;SDS011;7202;50.718;7.072;2024-01-15T04:10:15;20.85;;;10.77;;
14235;SDS011;7202;50.718;7.072;2024-01-15T04:12:43;20.80;;;10.55;;
14235;SDS011;7202;50.718;7.072;2024-01-15T04:15:13;18.33;;;10.55;;
14235;SDS011;7202;50.718;7.072;2024-01-15T04:17:41;18.70;;;11.30;;
14235;SDS011;7202;50.718;7.072;2024-01-15T04:20:10;24.95;;;11.93;;
14235;SDS011;7202;50.718;7.072;2024-01-15T04:22:40;16.85;;;10.20;;
14235;SDS011;7202;50.718;7.072;2024-01-15T04:25:09;19.88;;;10.07;;
14235;SDS011;7202;50.718;7.072;2024-01-15T04:27:38;20.50;;;9.80;;
14235;SDS011;7202;50.718;7.072;2024-01-15T04:30:07;18.17;;;10.32;;
14235;SDS011;7202;50.718;7.072;2024-01-15T04:32:36;18.45;;;9.57;;
14235;SDS011;7202;50.718;7.072;2024-01-15T04:35:08;16.70;;;10.02;;
14235;SDS011;7202;50.718;7.072;2024-01-15T04:37:36;21.80;;;10.35;;
14235;SDS011;7202;50.718;7.072;2024-01-15T04:40:07;14.48;;;9.30;;
14235;SDS011;7202;50.718;7.072;2024-01-15T04:42:36;18.70;;;9.10;;
14235;SDS011;7202;50.718;7.072;2024-01-15T04:45:05;17.48;;;9.45;;
14235;SDS011;7202;50.718;7.072;2024-01-15T04:47:34;16.15;;;9.35;;
14235;SDS011;7202;50.718;7.072;2024-01-15T04:50:05;17.10;;;9.40;;
14235;SDS011;7202;50.718;7.072;2024-01-15T04:52:34;16.15;;;9.40;;
14235;SDS011;7202;50.718;7.072;2024-01-15T04:55:02;20.70;;;10.15;;
14235;SDS011;7202;50.718;7.072;2024-01-15T04:57:32;22.00;;;8.70;;
14235;SDS011;7202;50.718;7.072;2024-01-15T05:00:01;18.27;;;8.65;;
14235;SDS011;7202;50.718;7.072;2024-01-15T05:02:30;15.88;;;9.25;;
14235;SDS011;7202;50.718;7.072;2024-01-15T05:04:58;13.50;;;7.72;;
14235;SDS011;7202;50.718;7.072;2024-01-15T05:07:27;15.45;;;8.27;;
14235;SDS011;7202;50.718;7.072;2024-01-15T05:09:55;20.35;;;8.80;;
14235;SDS011;7202;50.718;7.072;2024-01-15T05:12:24;14.93;;;8.05;;
14235;SDS011;7202;50.718;7.072;2024-01-15T05:14:54;15.75;;;7.95;;
14235;SDS011;7202;50.718;7.072;2024-01-15T05:17:23;15.25;;;8.32;;
14235;SDS011;7202;50.718;7.072;2024-01-15T05:19:51;17.60;;;8.07;;
14235;SDS011;7202;50.718;7.072;2024-01-15T05:22:20;12.52;;;8.30;;
14235;SDS011;7202;50.718;7.072;2024-01-15T05:24:51;18.55;;;8.88;;
14235;SDS011;7202;50.718;7.072;2024-01-15T05:27:20;17.30;;;8.55;;
14235;SDS011;7202;50.718;7.072;2024-01-15T05:29:48;14.88;;;8.32;;
14235;SDS011;7202;50.718;7.072;2024-01-15T05:32:18;20.60;;;9.75;;
14235;SDS011;7202;50.718;7.072;2024-01-15T05:34:47;17.55;;;8.35;;
14235;SDS011;7202;50.718;7.072;2024-01-15T05:37:16;13.93;;;8.82;;
14235;SDS011;7202;50.718;7.072;2024-01-15T05:39:44;16.95;;;8.48;;
14235;SDS011;7202;50.718;7.072;2024-01-15T05:42:13;16.52;;;8.82;;
14235;SDS011;7202;50.718;7.072;2024-01-15T05:44:41;13.13;;;8.32;;
14235;SDS011;7202;50.718;7.072;2024-01-15T05:47:10;16.52;;;8.57;;
14235;SDS011;7202;50.718;7.072;2024-01-15T05:49:39;17.33;;;9.75;;
14235;SDS011;7202;50.718;7.072;2024-01-15T05:52:08;16.40;;;9.23;;
14235;SDS011;7202;50.718;7.072;2024-01-15T05:54:37;18.23;;;8.98;;
14235;SDS011;7202;50.718;7.072;2024-01-15T05:57:05;19.10;;;9.65;;
14235;SDS011;7202;50.718;7.072;2024-01-15T05:59:34;18.00;;;8.65;;
14235;SDS011;7202;50.718;7.072;2024-01-15T06:02:03;16.88;;;10.93;;
14235;SDS011;7202;50.718;7.072;2024-01-15T06:04:32;17.98;;;9.30;;
14235;SDS011;7202;50.718;7.072;2024-01-15T06:07:02;16.83;;;9.68;;
14235;SDS011;7202;50.718;7.072;2024-01-15T06:09:30;16.02;;;9.27;;
14235;SDS011;7202;50.718;7.072;2024-01-15T06:11:59;17.52;;;7.93;;
14235;SDS011;7202;50.718;7.072;2024-01-15T06:14:28;17.63;;;9.77;;
14235;SDS011;7202;50.718;7.072;2024-01-15T06:16:57;16.30;;;9.45;;
14235;SDS011;7202;50.718;7.072;2024-01-15T06:19:25;17.38;;;9.50;;
14235;SDS011;7202;50.718;7.072;2024-01-15T06:21:54;15.05;;;8.88;;
14235;SDS011;7202;50.718;7.072;2024-01-15T06:24:24;17.35;;;8.82;;
14235;SDS011;7202;50.718;7.072;2024-01-15T06:26:52;18.60;;;9.00;;
14235;SDS011;7202;50.718;7.072;2024-01-15T06:29:21;19.73;;;9.20;;
14235;SDS011;7202;50.718;7.072;2024-01-15T06:31:51;16.52;;;9.32;;
14235;SDS011;7202;50.718;7.072;2024-01-15T06:34:19;18.20;;;9.02;;
14235;SDS011;7202;50.718;7.072;2024-01-15T06:36:48;19.25;;;8.13;;
14235;SDS011;7202;50.718;7.072;2024-01-15T06:39:17;17.30;;;8.52;;
14235;SDS011;7202;50.718;7.072;2024-01-15T06:41:47;16.70;;;9.05;;
14235;SDS011;7202;50.718;7.072;2024-01-15T06:44:15;17.17;;;8.77;;
14235;SDS011;7202;50.718;7.072;2024-01-15T06:46:44;17.58;;;9.10;;
14235;SDS011;7202;50.718;7.072;2024-01-15T06:49:13;15.98;;;9.02;;
14235;SDS011;7202;50.718;7.072;2024-01-15T06:51:41;21.60;;;10.02;;
14235;SDS011;7202;50.718;7.072;2024-01-15T06:54:13;17.95;;;9.25;;
14235;SDS011;7202;50.718;7.072;2024-01-15T06:56:42;15.45;;;9.25;;
14235;SDS011;7202;50.718;7.072;2024-01-15T06:59:12;18.33;;;9.68;;
14235;SDS011;7202;50.718;7.072;2024-01-15T07:01:44;19.77;;;9.45;;
14235;SDS011;7202;50.718;7.072;2024-01-15T07:04:13;17.48;;;9.32;;
14235;SDS011;7202;50.718;7.072;2024-01-15T07:06:42;15.75;;;8.90;;
14235;SDS011;7202;50.718;7.072;2024-01-15T07:09:10;17.45;;;9.85;;
14235;SDS011;7202;50.718;7.072;2024-01-15T07:11:43;16.52;;;10.18;;
14235;SDS011;7202;50.718;7.072;2024-01-15T07:14:13;16.40;;;9.40;;
14235;SDS011;7202;50.718;7.072;2024-01-15T07:16:42;18.60;;;9.65;;
14235;SDS011;7202;50.718;7.072;2024-01-15T07:19:14;21.88;;;10.27;;
14235;SDS011;7202;50.718;7.072;2024-01-15T07:21:43;18.67;;;10.15;;
14235;SDS011;7202;50.718;7.072;2024-01-15T07:24:11;17.05;;;9.82;;
14235;SDS011;7202;50.718;7.072;2024-01-15T07:26:40;20.63;;;10.55;;
14235;SDS011;7202;50.718;7.072;2024-01-15T07:29:08;15.80;;;9.45;;
14235;SDS011;7202;50.718;7.072;2024-01-15T07:31:38;19.60;;;9.32;;
14235;SDS011;7202;50.718;7.072;2024-01-15T07:34:07;20.35;;;9.27;;
14235;SDS011;7202;50.718;7.072;2024-01-15T07:36:36;20.73;;;10.02;;
14235;SDS011;7202;50.718;7.072;2024-01-15T07:39:04;21.63;;;10.05;;
14235;SDS011;7202;50.718;7.072;2024-01-15T07:41:33;20.77;;;9.52;;
14235;SDS011;7202;50.718;7.072;2024-01-15T07:44:03;17.38;;;9.68;;
14235;SDS011;7202;50.718;7.072;2024-01-15T07:46:31;20.65;;;9.38;;
14235;SDS011;7202;50.718;7.072;2024-01-15T07:49:01;18.35;;;9.15;;
14235;SDS011;7202;50.718;7.072;2024-01-15T07:51:30;21.48;;;9.88;;
14235;SDS011;7202;50.718;7.072;2024-01-15T07:53:59;22.45;;;9.90;;
14235;SDS011;7202;50.718;7.072;2024-01-15T07:56:28;22.88;;;9.52;;
14235;SDS011;7202;50.718;7.072;2024-01-15T07:58:56;15.02;;;9.18;;
14235;SDS011;7202;50.718;7.072;2024-01-15T08:01:25;17.58;;;9.55;;
14235;SDS011;7202;50.718;7.072;2024-01-15T08:03:53;18.10;;;9.20;;
14235;SDS011;7202;50.718;7.072;2024-01-15T08:06:23;16.90;;;8.43;;
14235;SDS011;7202;50.718;7.072;2024-01-15T08:08:52;20.75;;;9.32;;
14235;SDS011;7202;50.718;7.072;2024-01-15T08:11:21;22.15;;;10.15;;
14235;SDS011;7202;50.718;7.072;2024-01-15T08:13:49;16.17;;;8.85;;
14235;SDS011;7202;50.718;7.072;2024-01-15T08:16:18;19.13;;;8.65;;
14235;SDS011;7202;50.718;7.072;2024-01-15T08:18:47;15.07;;;8.88;;
14235;SDS011;7202;50.718;7.072;2024-01-15T08:21:16;13.10;;;8.35;;
14235;SDS011;7202;50.718;7.072;2024-01-15T08:23:46;16.67;;;7.70;;
14235;SDS011;7202;50.718;7.072;2024-01-15T08:26:14;16.30;;;7.75;;
14235;SDS011;7202;50.718;7.072;2024-01-15T08:28:43;13.45;;;7.78;;
14235;SDS011;7202;50.718;7.072;2024-01-15T08:31:12;22.38;;;8.98;;
14235;SDS011;7202;50.718;7.072;2024-01-15T08:33:41;12.85;;;7.68;;
14235;SDS011;7202;50.718;7.072;2024-01-15T08:36:10;15.98;;;8.18;;
14235;SDS011;7202;50.718;7.072;2024-01-15T08:38:39;14.02;;;7.65;;
14235;SDS011;7202;50.718;7.072;2024-01-15T08:41:08;15.27;;;7.53;;
14235;SDS011;7202;50.718;7.072;2024-01-15T08:43:38;19.73;;;7.90;;
14235;SDS011;7202;50.718;7.072;2024-01-15T08:46:06;13.25;;;7.18;;
14235;SDS011;7202;50.718;7.072;2024-01-15T08:48:35;16.73;;;9.00;;
14235;SDS011;7202;50.718;7.072;2024-01-15T08:51:04;18.10;;;8.75;;
14235;SDS011;7202;50.718;7.072;2024-01-15T08:53:32;20.23;;;8.52;;
14235;SDS011;7202;50.718;7.072;2024-01-15T08:56:01;19.02;;;8.07;;
14235;SDS011;7202;50.718;7.072;2024-01-15T08:58:31;18.42;;;8.20;;
14235;SDS011;7202;50.718;7.072;2024-01-15T09:00:59;15.65;;;8.15;;
14235;SDS011;7202;50.718;7.072;2024-01-15T09:03:28;17.55;;;8.27;;
14235;SDS011;7202;50.718;7.072;2024-01-15T09:05:57;16.17;;;7.93;;
14235;SDS011;7202;50.718;7.072;2024-01-15T09:08:26;17.27;;;8.18;;
14235;SDS011;7202;50.718;7.072;2024-01-15T09:10:55;18.50;;;8.82;;
14235;SDS011;7202;50.718;7.072;2024-01-15T09:13:23;19.17;;;7.93;;
14235;SDS011;7202;50.718;7.072;2024-01-15T09:15:53;14.68;;;7.65;;
14235;SDS011;7202;50.718;7.072;2024-01-15T09:18:22;16.45;;;8.05;;
14235;SDS011;7202;50.718;7.072;2024-01-15T09:20:51;14.68;;;8.68;;
14235;SDS011;7202;50.718;7.072;2024-01-15T09:23:19;19.33;;;8.13;;
14235;SDS011;7202;50.718;7.072;2024-01-15T09:25:48;15.48;;;8.25;;
14235;SDS011;7202;50.718;7.072;2024-01-15T09:28:16;15.63;;;7.38;;
14235;SDS011;7202;50.718;7.072;2024-01-15T09:30:45;14.50;;;7.10;;
14235;SDS011;7202;50.718;7.072;2024-01-15T09:33:15;12.73;;;7.90;;
14235;SDS011;7202;50.718;7.072;2024-01-15T09:35:44;11.07;;;6.68;;
14235;SDS011;7202;50.718;7.072;2024-01-15T09:38:13;10.88;;;6.55;;
14235;SDS011;7202;50.718;7.072;2024-01-15T09:40:43;13.38;;;6.60;;
14235;SDS011;7202;50.718;7.072;2024-01-15T09:43:13;13.23;;;6.50;;
14235;SDS011;7202;50.718;7.072;2024-01-15T09:45:43;13.55;;;6.65;;
14235;SDS011;7202;50.718;7.072;2024-01-15T09:48:12;24.67;;;6.10;;
14235;SDS011;7202;50.718;7.072;2024-01-15T09:50:43;11.40;;;6.00;;
14235;SDS011;7202;50.718;7.072;2024-01-15T09:53:11;8.82;;;6.05;;
14235;SDS011;7202;50.718;7.072;2024-01-15T09:55:42;12.68;;;6.13;;
14235;SDS011;7202;50.718;7.072;2024-01-15T09:58:11;11.48;;;6.38;;
14235;SDS011;7202;50.718;7.072;2024-01-15T10:00:40;11.52;;;6.28;;
14235;SDS011;7202;50.718;7.072;2024-01-15T10:03:10;11.20;;;5.90;;
14235;SDS011;7202;50.718;7.072;2024-01-15T10:05:39;10.00;;;5.55;;
14235;SDS011;7202;50.718;7.072;2024-01-15T10:08:09;9.68;;;5.35;;
14235;SDS011;7202;50.718;7.072;2024-01-15T10:10:39;8.43;;;5.63;;
14235;SDS011;7202;50.718;7.072;2024-01-15T10:13:07;7.97;;;5.22;;
14235;SDS011;7202;50.718;7.072;2024-01-15T10:15:37;10.35;;;5.38;;
14235;SDS011;7202;50.718;7.072;2024-01-15T10:18:06;8.32;;;5.45;;
14235;SDS011;7202;50.718;7.072;2024-01-15T10:20:35;10.98;;;5.78;;
14235;SDS011;7202;50.718;7.072;2024-01-15T10:23:03;10.18;;;6.40;;
14235;SDS011;7202;50.718;7.072;2024-01-15T10:25:34;9.75;;;6.07;;
14235;SDS011;7202;50.718;7.072;2024-01-15T10:28:04;9.43;;;5.97;;
14235;SDS011;7202;50.718;7.072;2024-01-15T10:30:33;11.80;;;6.40;;
14235;SDS011;7202;50.718;7.072;2024-01-15T10:33:02;8.50;;;5.95;;
14235;SDS011;7202;50.718;7.072;2024-01-15T10:35:32;10.40;;;6.60;;
14235;SDS011;7202;50.718;7.072;2024-01-15T10:38:02;11.80;;;6.65;;
14235;SDS011;7202;50.718;7.072;2024-01-15T10:40:31;12.40;;;6.70;;
14235;SDS011;7202;50.718;7.072;2024-01-15T10:43:01;10.18;;;7.15;;
14235;SDS011;7202;50.718;7.072;2024-01-15T10:45:31;13.65;;;7.20;;
14235;SDS011;7202;50.718;7.072;2024-01-15T10:47:59;11.65;;;7.40;;
14235;SDS011;7202;50.718;7.072;2024-01-15T10:50:29;9.25;;;6.85;;
14235;SDS011;7202;50.718;7.072;2024-01-15T10:52:59;11.88;;;7.15;;
14235;SDS011;7202;50.718;7.072;2024-01-15T10:55:29;7.25;;;5.65;;
14235;SDS011;7202;50.718;7.072;2024-01-15T10:57:59;9.80;;;6.10;;
14235;SDS011;7202;50.718;7.072;2024-01-15T11:00:30;10.38;;;5.82;;
14235;SDS011;7202;50.718;7.072;2024-01-15T11:03:00;12.85;;;6.80;;
14235;SDS011;7202;50.718;7.072;2024-01-15T11:05:29;8.73;;;5.80;;
14235;SDS011;7202;50.718;7.072;2024-01-15T11:08:01;8.52;;;5.75;;
14235;SDS011;7202;50.718;7.072;2024-01-15T11:10:40;7.47;;;4.82;;
14235;SDS011;7202;50.718;7.072;2024-01-15T11:13:10;6.63;;;4.40;;
14235;SDS011;7202;50.718;7.072;2024-01-15T11:15:55;8.38;;;5.35;;
14235;SDS011;7202;50.718;7.072;2024-01-15T11:18:28;7.35;;;5.43;;
14235;SDS011;7202;50.718;7.072;2024-01-15T11:23:55;8.05;;;5.22;;
14235;SDS011;7202;50.718;7.072;2024-01-15T11:26:32;10.93;;;6.13;;
14235;SDS011;7202;50.718;7.072;2024-01-15T11:29:03;8.38;;;5.35;;
14235;SDS011;7202;50.718;7.072;2024-01-15T11:37:29;10.02;;;6.18;;
14235;SDS011;7202;50.718;7.072;2024-01-15T11:40:18;9.02;;;6.20;;
14235;SDS011;7202;50.718;7.072;2024-01-15T11:42:48;10.30;;;6.80;;
14235;SDS011;7202;50.718;7.072;2024-01-15T11:45:19;14.65;;;6.53;;
14235;SDS011;7202;50.718;7.072;2024-01-15T11:50:44;10.50;;;6.40;;
14235;SDS011;7202;50.718;7.072;2024-01-15T11:53:17;8.48;;;5.97;;
14235;SDS011;7202;50.718;7.072;2024-01-15T11:55:49;10.50;;;6.32;;
14235;SDS011;7202;50.718;7.072;2024-01-15T11:58:20;11.48;;;6.75;;
14235;SDS011;7202;50.718;7.072;2024-01-15T12:00:50;13.30;;;6.40;;
14235;SDS011;7202;50.718;7.072;2024-01-15T12:03:21;12.35;;;6.63;;
14235;SDS011;7202;50.718;7.072;2024-01-15T12:05:51;12.63;;;7.00;;
14235;SDS011;7202;50.718;7.072;2024-01-15T12:08:21;12.85;;;8.30;;
14235;SDS011;7202;50.718;7.072;2024-01-15T12:10:49;20.33;;;7.55;;
14235;SDS011;7202;50.718;7.072;2024-01-15T12:13:18;12.25;;;6.60;;
14235;SDS011;7202;50.718;7.072;2024-01-15T12:15:48;14.20;;;7.82;;
14235;SDS011;7202;50.718;7.072;2024-01-15T12:18:18;11.60;;;7.28;;
14235;SDS011;7202;50.718;7.072;2024-01-15T12:20:49;17.08;;;7.63;;
14235;SDS011;7202;50.718;7.072;2024-01-15T12:23:18;15.63;;;7.90;;
14235;SDS011;7202;50.718;7.072;2024-01-15T12:25:47;13.25;;;7.72;;
14235;SDS011;7202;50.718;7.072;2024-01-15T12:28:17;15.27;;;7.80;;
14235;SDS011;7202;50.718;7.072;2024-01-15T12:30:46;12.32;;;7.72;;
14235;SDS011;7202;50.718;7.072;2024-01-15T12:33:17;12.43;;;7.15;;
14235;SDS011;7202;50.718;7.072;2024-01-15T12:35:49;10.93;;;6.70;;
14235;SDS011;7202;50.718;7.072;2024-01-15T12:38:21;14.55;;;6.90;;
14235;SDS011;7202;50.718;7.072;2024-01-15T12:40:49;16.58;;;6.70;;
14235;SDS011;7202;50.718;7.072;2024-01-15T12:43:18;14.63;;;7.18;;
14235;SDS011;7202;50.718;7.072;2024-01-15T12:45:46;17.30;;;6.95;;
14235;SDS011;7202;50.718;7.072;2024-01-15T12:48:15;12.18;;;6.55;;
14235;SDS011;7202;50.718;7.072;2024-01-15T12:50:45;11.77;;;6.68;;
14235;SDS011;7202;50.718;7.072;2024-01-15T12:53:16;12.90;;;6.13;;
14235;SDS011;7202;50.718;7.072;2024-01-15T12:55:45;15.73;;;6.63;;
14235;SDS011;7202;50.718;7.072;2024-01-15T12:58:14;9.43;;;5.88;;
14235;SDS011;7202;50.718;7.072;2024-01-15T13:00:46;9.43;;;5.35;;
14235;SDS011;7202;50.718;7.072;2024-01-15T13:03:15;10.40;;;5.60;;
14235;SDS011;7202;50.718;7.072;2024-01-15T13:05:44;15.38;;;5.97;;
14235;SDS011;7202;50.718;7.072;2024-01-15T13:08:13;13.15;;;5.50;;
14235;SDS011;7202;50.718;7.072;2024-01-15T13:10:43;14.30;;;5.50;;
14235;SDS011;7202;50.718;7.072;2024-01-15T13:13:11;15.57;;;5.22;;
14235;SDS011;7202;50.718;7.072;2024-01-15T13:15:40;8.93;;;5.22;;
14235;SDS011;7202;50.718;7.072;2024-01-15T13:18:09;10.95;;;4.88;;
14235;SDS011;7202;50.718;7.072;2024-01-15T13:20:37;12.80;;;5.30;;
14235;SDS011;7202;50.718;7.072;2024-01-15T13:23:06;9.75;;;5.00;;
14235;SDS011;7202;50.718;7.072;2024-01-15T13:25:35;10.25;;;4.38;;
14235;SDS011;7202;50.718;7.072;2024-01-15T13:28:06;8.00;;;4.95;;
14235;SDS011;7202;50.718;7.072;2024-01-15T13:30:35;7.32;;;4.35;;
14235;SDS011;7202;50.718;7.072;2024-01-15T13:33:04;9.35;;;4.45;;
14235;SDS011;7202;50.718;7.072;2024-01-15T13:35:33;7.15;;;4.15;;
14235;SDS011;7202;50.718;7.072;2024-01-15T13:38:02;6.03;;;3.72;;
14235;SDS011;7202;50.718;7.072;2024-01-15T13:40:31;10.07;;;4.53;;
14235;SDS011;7202;50.718;7.072;2024-01-15T13:43:00;9.25;;;4.05;;
14235;SDS011;7202;50.718;7.072;2024-01-15T13:45:30;7.40;;;4.20;;
14235;SDS011;7202;50.718;7.072;2024-01-15T13:47:58;9.07;;;4.40;;
14235;SDS011;7202;50.718;7.072;2024-01-15T13:50:27;8.48;;;4.15;;
14235;SDS011;7202;50.718;7.072;2024-01-15T13:52:55;5.57;;;4.30;;
14235;SDS011;7202;50.718;7.072;2024-01-15T13:55:24;11.27;;;4.47;;
14235;SDS011;7202;50.718;7.072;2024-01-15T13:57:53;8.30;;;4.25;;
14235;SDS011;7202;50.718;7.072;2024-01-15T14:00:21;8.38;;;4.55;;
14235;SDS011;7202;50.718;7.072;2024-01-15T14:02:52;7.82;;;4.00;;
14235;SDS011;7202;50.718;7.072;2024-01-15T14:05:20;6.25;;;4.45;;
14235;SDS011;7202;50.718;7.072;2024-01-15T14:07:49;10.38;;;4.25;;
14235;SDS011;7202;50.718;7.072;2024-01-15T14:10:17;7.90;;;5.00;;
14235;SDS011;7202;50.718;7.072;2024-01-15T14:12:46;9.00;;;4.00;;
14235;SDS011;7202;50.718;7.072;2024-01-15T14:15:17;6.15;;;3.95;;
14235;SDS011;7202;50.718;7.072;2024-01-15T14:17:47;8.13;;;4.30;;
14235;SDS011;7202;50.718;7.072;2024-01-15T14:20:18;5.97;;;3.63;;
14235;SDS011;7202;50.718;7.072;2024-01-15T14:22:49;5.80;;;3.47;;
14235;SDS011;7202;50.718;7.072;2024-01-15T14:25:17;7.47;;;4.05;;
14235;SDS011;7202;50.718;7.072;2024-01-15T14:27:46;8.40;;;3.95;;
14235;SDS011;7202;50.718;7.072;2024-01-15T14:30:15;5.82;;;3.33;;
14235;SDS011;7202;50.718;7.072;2024-01-15T14:32:44;7.80;;;3.78;;
14235;SDS011;7202;50.718;7.072;2024-01-15T14:35:13;8.55;;;3.92;;
14235;SDS011;7202;50.718;7.072;2024-01-15T14:37:42;5.15;;;3.65;;
14235;SDS011;7202;50.718;7.072;2024-01-15T14:40:12;4.47;;;3.50;;
14235;SDS011;7202;50.718;7.072;2024-01-15T14:42:44;6.72;;;3.20;;
14235;SDS011;7202;50.718;7.072;2024-01-15T14:45:12;6.90;;;2.80;;
14235;SDS011;7202;50.718;7.072;2024-01-15T14:47:41;5.45;;;2.90;;
14235;SDS011;7202;50.718;7.072;2024-01-15T14:50:11;5.47;;;2.70;;
14235;SDS011;7202;50.718;7.072;2024-01-15T14:52:40;5.28;;;2.33;;
14235;SDS011;7202;50.718;7.072;2024-01-15T14:55:10;3.45;;;2.72;;
14235;SDS011;7202;50.718;7.072;2024-01-15T14:57:39;3.88;;;2.15;;
14235;SDS011;7202;50.718;7.072;2024-01-15T15:00:08;4.70;;;2.50;;
14235;SDS011;7202;50.718;7.072;2024-01-15T15:02:36;4.05;;;2.60;;
14235;SDS011;7202;50.718;7.072;2024-01-15T15:05:05;4.22;;;2.70;;
14235;SDS011;7202;50.718;7.072;2024-01-15T15:07:35;3.78;;;2.63;;
14235;SDS011;7202;50.718;7.072;2024-01-15T15:10:04;3.40;;;2.65;;
14235;SDS011;7202;50.718;7.072;2024-01-15T15:12:35;4.82;;;3.20;;